Terminal Aerodrome Forecast
Issued by NWS Duluth, MN

Home | Current Version | Previous Version | Text Only | Print | Product List | Glossary On
Versions: 1 2 3 4 5 6 7 8 9 10 11 12 13 14 15 16
000
FTUS43 KDLH 301100
TAFINL
TAF
KINL 301138Z 3012/3112 00000KT P6SM SKC
     FM301500 30005KT P6SM SKC
     FM301900 32010KT P6SM SCT050
     FM310400 00000KT P6SM SKC=

USA.gov is the U.S. government's official web portal to all federal, state and local government web resources and services.